Data for 12/30/2014

Time Sea-Level Adjusted Pressure Absolute Pressure Temperature Relative Humidity Dew Point   
(mb) (inHg) (mb) (inHg) (C) (F) (%) (C) (F)
00:05 1033 30.5 862 25.45 -20.3 -4.6 68 -24.7 -12.5
00:10 1033 30.5 862 25.45 -20.4 -4.7 68 -24.9 -12.7
00:15 1033 30.5 862 25.45 -20.4 -4.7 68 -24.9 -12.7
00:20 1033 30.5 862 25.45 -20.4 -4.8 69 -24.8 -12.6
00:25 1033 30.5 862 25.45 -20.5 -4.9 69 -24.8 -12.7
00:30 1033 30.5 862 25.45 -20.5 -4.9 69 -24.9 -12.7
00:35 1033 30.5 862 25.45 -20.5 -5 69 -24.9 -12.8
00:40 1033 30.5 862 25.45 -20.5 -5 69 -24.9 -12.8
00:45 1033 30.5 862 25.45 -20.6 -5 69 -24.9 -12.8
00:50 1033 30.5 862 25.45 -20.6 -5.1 69 -24.9 -12.8
00:55 1033 30.5 862 25.45 -20.6 -5 69 -24.9 -12.8
01:00 1033 30.5 862 25.45 -20.6 -5.1 69 -24.9 -12.8
01:05 1033 30.5 862 25.45 -20.6 -5.2 69 -24.9 -12.9
01:10 1033 30.5 862 25.45 -20.6 -5.1 69 -25 -12.9
01:15 1033 30.5 862 25.45 -20.6 -5.1 69 -25 -12.9
01:20 1033 30.5 862 25.45 -20.6 -5.1 69 -24.9 -12.8
01:25 1033 30.5 862 25.45 -20.6 -5.1 69 -25 -12.9
01:30 1033 30.5 862 25.45 -20.7 -5.2 69 -25 -13
01:35 1033 30.5 862 25.45 -20.7 -5.2 69 -25 -13
01:40 1033 30.5 862 25.45 -20.7 -5.2 69 -25 -13
01:45 1033 30.5 862 25.45 -20.7 -5.2 69 -25.1 -13.1
01:50 1033 30.5 862 25.45 -20.7 -5.3 69 -25.1 -13.2
01:55 1033 30.5 862 25.45 -20.8 -5.4 68 -25.2 -13.3
02:00 1033 30.5 862 25.45 -20.8 -5.4 68 -25.2 -13.4
02:05 1033 30.5 862 25.45 -20.8 -5.4 67 -25.3 -13.5
02:10 1033 30.5 862 25.45 -20.8 -5.4 67 -25.4 -13.7
02:15 1033 30.5 862 25.45 -20.8 -5.4 68 -25.2 -13.4
02:20 1033 30.5 862 25.45 -20.9 -5.6 70 -25 -13
02:25 1033 30.5 862 25.45 -21 -5.8 71 -24.9 -12.9
02:30 1033 30.5 863 25.48 -21.1 -5.9 71 -25.1 -13.1
02:35 1033 30.5 863 25.48 -21.1 -6 70 -25.2 -13.3
02:40 1033 30.5 862 25.45 -21.1 -6 70 -25.2 -13.3
02:45 1033 30.5 862 25.45 -21.1 -6 70 -25.2 -13.4
02:50 1033 30.5 862 25.45 -21.1 -6 70 -25.2 -13.4
02:55 1033 30.5 862 25.45 -21.1 -6 69 -25.3 -13.6
03:00 1033 30.5 862 25.45 -21.1 -6 69 -25.4 -13.7
03:05 1033 30.5 862 25.45 -21.1 -6 69 -25.3 -13.6
03:10 1033 30.5 862 25.45 -21.1 -6.1 69 -25.4 -13.7
03:15 1033 30.5 862 25.45 -21.2 -6.1 70 -25.3 -13.5
03:20 1033 30.5 863 25.48 -21.2 -6.2 70 -25.3 -13.6
03:25 1033 30.5 863 25.48 -21.2 -6.2 70 -25.3 -13.6
03:30 1034 30.53 863 25.48 -21.2 -6.2 70 -25.4 -13.6
03:35 1034 30.53 863 25.48 -21.2 -6.2 69 -25.5 -13.9
03:40 1034 30.53 863 25.48 -21.2 -6.2 69 -25.5 -13.9
03:45 1034 30.53 863 25.48 -21.2 -6.2 68 -25.6 -14
03:50 1034 30.53 863 25.48 -21.1 -6 69 -25.5 -13.8
03:55 1034 30.53 863 25.48 -21.1 -5.9 68 -25.5 -13.9
04:00 1034 30.53 863 25.48 -21 -5.8 68 -25.5 -13.9
04:05 1034 30.53 863 25.48 -21.1 -5.9 67 -25.7 -14.3
04:10 1034 30.53 863 25.48 -21.1 -6 68 -25.6 -14.1
04:15 1034 30.53 863 25.48 -21.1 -6.1 67 -25.7 -14.3
04:20 1034 30.53 863 25.48 -21.2 -6.1 67 -25.7 -14.3
04:25 1034 30.53 863 25.48 -21.2 -6.2 68 -25.7 -14.3
04:30 1034 30.53 863 25.48 -21.3 -6.3 68 -25.7 -14.2
04:35 1034 30.53 863 25.48 -21.3 -6.3 68 -25.7 -14.3
04:40 1034 30.53 863 25.48 -21.3 -6.3 68 -25.7 -14.3
04:45 1034 30.53 863 25.48 -21.3 -6.4 68 -25.8 -14.4
04:50 1034 30.53 863 25.48 -21.4 -6.5 68 -25.9 -14.6
04:55 1034 30.53 863 25.48 -21.5 -6.6 68 -25.9 -14.6
05:00 1034 30.53 863 25.48 -21.5 -6.7 68 -25.9 -14.6
05:05 1034 30.53 863 25.48 -21.6 -6.9 69 -25.9 -14.7
05:10 1034 30.53 863 25.48 -21.6 -6.9 68 -26 -14.8
05:15 1034 30.53 863 25.48 -21.7 -7 69 -26 -14.8
05:20 1034 30.53 863 25.48 -21.7 -7.1 68 -26.1 -15
05:25 1034 30.53 863 25.48 -21.7 -7.1 69 -26.1 -14.9
05:30 1034 30.53 863 25.48 -21.7 -7.1 68 -26.2 -15.1
05:35 1034 30.53 863 25.48 -21.8 -7.2 68 -26.1 -15.1
05:40 1034 30.53 863 25.48 -21.9 -7.4 68 -26.2 -15.2
05:45 1034 30.53 863 25.48 -21.9 -7.4 69 -26.2 -15.1
05:50 1034 30.53 863 25.48 -22 -7.5 71 -25.8 -14.5
05:55 1034 30.53 863 25.48 -22.1 -7.9 73 -25.7 -14.2
06:00 1034 30.53 863 25.48 -22.4 -8.2 76 -25.6 -14
06:05 1034 30.53 863 25.48 -22.6 -8.6 78 -25.5 -13.8
06:10 1034 30.53 863 25.48 -22.7 -8.9 78 -25.5 -14
06:15 1034 30.53 863 25.48 -22.8 -9 78 -25.6 -14
06:20 1034 30.53 863 25.48 -22.9 -9.3 79 -25.6 -14.2
06:25 1034 30.53 863 25.48 -23 -9.3 79 -25.6 -14.2
06:30 1034 30.53 863 25.48 -23 -9.4 79 -25.7 -14.2
06:35 1034 30.53 863 25.48 -23 -9.4 79 -25.7 -14.2
06:40 1034 30.53 863 25.48 -23 -9.4 79 -25.7 -14.3
06:45 1034 30.53 863 25.48 -23 -9.4 79 -25.6 -14.2
06:50 1034 30.53 863 25.48 -22.9 -9.2 79 -25.6 -14.1
06:55 1034 30.53 863 25.48 -22.8 -9.1 79 -25.5 -14
07:00 1034 30.53 863 25.48 -22.9 -9.1 79 -25.6 -14.1
07:05 1034 30.53 863 25.48 -23 -9.4 75 -26.3 -15.3
07:10 1034 30.53 863 25.48 -23.7 -10.7 75 -27 -16.5
07:15 1034 30.53 863 25.48 -23.9 -11.1 75 -27.2 -16.9
07:20 1034 30.53 863 25.48 -24 -11.1 76 -27.1 -16.8
07:25 1034 30.53 864 25.51 -24 -11.2 76 -27 -16.7
07:30 1034 30.53 864 25.51 -24 -11.3 75 -27.3 -17.2
07:35 1035 30.56 864 25.51 -24.2 -11.6 76 -27.3 -17.2
07:40 1035 30.56 864 25.51 -24.3 -11.8 76 -27.4 -17.3
07:45 1035 30.56 864 25.51 -24.5 -12.1 75 -27.7 -17.9
07:50 1035 30.56 864 25.51 -24.6 -12.3 76 -27.7 -17.8
07:55 1035 30.56 864 25.51 -24.7 -12.5 75 -28 -18.4
08:00 1035 30.56 864 25.51 -24.9 -12.8 73 -28.4 -19.1
08:05 1034 30.53 864 25.51 -25.1 -13.2 74 -28.5 -19.2
08:10 1034 30.53 864 25.51 -25.3 -13.5 74 -28.6 -19.4
08:15 1034 30.53 864 25.51 -25.1 -13.1 75 -28.3 -18.9
08:20 1034 30.53 864 25.51 -24.9 -12.9 73 -28.5 -19.2
08:25 1034 30.53 863 25.48 -25 -12.9 73 -28.5 -19.3
08:30 1034 30.53 864 25.51 -25.1 -13.1 73 -28.6 -19.5
08:35 1034 30.53 864 25.51 -25.1 -13.1 72 -28.8 -19.8
08:40 1034 30.53 864 25.51 -25.1 -13.1 72 -28.7 -19.7
08:45 1035 30.56 864 25.51 -25.1 -13.2 71 -28.9 -20.1
08:50 1035 30.56 864 25.51 -25.3 -13.5 71 -29.2 -20.5
08:55 1035 30.56 864 25.51 -25.4 -13.7 71 -29.3 -20.7
09:00 1035 30.56 864 25.51 -25.5 -13.8 70 -29.4 -20.9
09:05 1035 30.56 864 25.51 -25.5 -13.8 70 -29.4 -21
09:10 1035 30.56 864 25.51 -25.6 -14.1 71 -29.4 -20.9
09:15 1035 30.56 864 25.51 -25.5 -13.9 70 -29.5 -21
09:20 1035 30.56 864 25.51 -25.6 -14.1 70 -29.7 -21.4
09:25 1035 30.56 864 25.51 -25.7 -14.2 71 -29.5 -21.1
09:30 1035 30.56 864 25.51 -25.6 -14.1 71 -29.4 -20.9
09:35 1035 30.56 864 25.51 -25.6 -14.2 72 -29.3 -20.8
09:40 1035 30.56 864 25.51 -25.6 -14 73 -29.1 -20.4
09:45 1035 30.56 864 25.51 -25.2 -13.3 73 -28.7 -19.7
09:50 1035 30.56 864 25.51 -24.9 -12.8 71 -28.6 -19.6
09:55 1035 30.56 864 25.51 -24.4 -11.8 70 -28.4 -19.1
10:00 1035 30.56 864 25.51 -23.9 -11 69 -28.2 -18.7
10:05 1035 30.56 864 25.51 -23.3 -9.9 68 -27.7 -17.8
10:10 1035 30.56 864 25.51 -22.9 -9.2 66 -27.5 -17.5
10:15 1035 30.56 864 25.51 -23.1 -9.5 66 -27.8 -18
10:20 1035 30.56 864 25.51 -22.9 -9.3 67 -27.5 -17.5
10:25 1035 30.56 864 25.51 -22.8 -9 63 -28 -18.5
10:30 1035 30.56 864 25.51 -23.2 -9.7 63 -28.3 -18.9
10:35 1035 30.56 864 25.51 -23.4 -10.1 66 -28.1 -18.6
10:40 1035 30.56 864 25.51 -23.2 -9.8 63 -28.4 -19.1
10:45 1035 30.56 864 25.51 -22.9 -9.2 63 -28.1 -18.6
10:50 1035 30.56 864 25.51 -22.2 -8 60 -28 -18.4
10:55 1035 30.56 864 25.51 -22.2 -7.9 58 -28.3 -18.9
11:00 1035 30.56 864 25.51 -22.1 -7.9 60 -27.9 -18.2
11:05 1035 30.56 864 25.51 -21.6 -6.9 58 -27.9 -18.1
11:10 1035 30.56 864 25.51 -21.6 -6.8 57 -28 -18.4
11:15 1035 30.56 864 25.51 -21.9 -7.4 56 -28.5 -19.3
11:20 1035 30.56 864 25.51 -22.1 -7.7 58 -28.2 -18.8
11:25 1035 30.56 864 25.51 -21.7 -7.1 58 -27.9 -18.3
11:30 1034 30.53 864 25.51 -21.7 -7 58 -27.9 -18.1
11:35 1034 30.53 864 25.51 -21.7 -7 58 -27.8 -18.1
11:40 1034 30.53 864 25.51 -21.8 -7.2 59 -27.8 -18
11:45 1035 30.56 864 25.51 -21.9 -7.3 59 -27.8 -18.1
11:50 1034 30.53 864 25.51 -21.3 -6.4 58 -27.5 -17.5
11:55 1034 30.53 864 25.51 -20.7 -5.3 58 -27 -16.6
12:00 1034 30.53 864 25.51 -20.6 -5 58 -26.9 -16.4
12:05 1034 30.53 863 25.48 -21 -5.8 61 -26.7 -16.1
12:10 1034 30.53 864 25.51 -21.5 -6.6 61 -27.1 -16.7
12:15 1034 30.53 864 25.51 -21.7 -7.1 63 -27 -16.6
12:20 1034 30.53 864 25.51 -21.2 -6.2 61 -26.9 -16.4
12:25 1034 30.53 864 25.51 -20.3 -4.6 58 -26.6 -15.8
12:30 1034 30.53 864 25.51 -20.4 -4.8 57 -26.8 -16.2
12:35 1034 30.53 864 25.51 -20.5 -4.9 58 -26.7 -16.1
12:40 1034 30.53 864 25.51 -20.6 -5.1 59 -26.7 -16.1
12:45 1034 30.53 864 25.51 -20.2 -4.3 57 -26.6 -15.8
12:50 1034 30.53 864 25.51 -19.8 -3.6 57 -26.3 -15.3
12:55 1034 30.53 864 25.51 -20.5 -4.8 58 -26.8 -16.2
13:00 1034 30.53 864 25.51 -21 -5.9 60 -26.9 -16.5
13:05 1034 30.53 864 25.51 -21.5 -6.6 61 -27.1 -16.7
13:10 1034 30.53 864 25.51 -21.3 -6.3 60 -27.1 -16.8
13:15 1034 30.53 863 25.48 -21.4 -6.5 61 -27 -16.5
13:20 1034 30.53 863 25.48 -21.3 -6.4 59 -27.3 -17.1
13:25 1034 30.53 863 25.48 -21.3 -6.3 61 -27 -16.5
13:30 1034 30.53 863 25.48 -21.3 -6.4 62 -26.8 -16.3
13:35 1034 30.53 863 25.48 -21.1 -6 61 -26.8 -16.3
13:40 1034 30.53 863 25.48 -20.9 -5.6 61 -26.5 -15.8
13:45 1034 30.53 863 25.48 -20.7 -5.2 61 -26.3 -15.4
13:50 1034 30.53 863 25.48 -20.4 -4.7 60 -26.3 -15.4
13:55 1033 30.5 863 25.48 -20.5 -4.8 61 -26.2 -15.2
14:00 1033 30.5 862 25.45 -19.9 -3.8 60 -25.9 -14.6
14:05 1033 30.5 862 25.45 -19.3 -2.7 56 -25.9 -14.7
14:10 1033 30.5 862 25.45 -18.4 -1.1 53 -25.8 -14.5
14:15 1033 30.5 862 25.45 -17.8 -0 51 -25.6 -14
14:20 1033 30.5 862 25.45 -18.3 -1 57 -25 -12.9
14:25 1033 30.5 862 25.45 -18.4 -1 57 -24.9 -12.8
14:30 1033 30.5 862 25.45 -18.4 -1.1 56 -25.3 -13.5
14:35 1033 30.5 862 25.45 -19.3 -2.7 61 -25 -13
14:40 1033 30.5 862 25.45 -20.1 -4.1 65 -25.1 -13.1
14:45 1033 30.5 862 25.45 -19.2 -2.6 58 -25.5 -13.9
14:50 1033 30.5 862 25.45 -19.4 -2.8 60 -25.3 -13.6
14:55 1033 30.5 862 25.45 -18.4 -1.2 57 -25 -13
15:00 1033 30.5 862 25.45 -17.9 -0.3 54 -25.1 -13.2
15:05 1033 30.5 862 25.45 -18.4 -1.1 57 -24.9 -12.8
15:10 1033 30.5 862 25.45 -18.5 -1.2 57 -25 -13
15:15 1033 30.5 862 25.45 -18.3 -1 56 -25.1 -13.3
15:20 1033 30.5 862 25.45 -18.1 -0.5 55 -25 -13.1
15:25 1033 30.5 862 25.45 -18.2 -0.7 56 -24.9 -12.8
15:30 1033 30.5 862 25.45 -18.3 -1 57 -25 -13
15:35 1033 30.5 862 25.45 -18.4 -1.1 57 -25 -13
15:40 1033 30.5 862 25.45 -18.4 -1.2 57 -25 -13
15:45 1033 30.5 862 25.45 -18.4 -1.1 57 -25 -13
15:50 1032 30.47 862 25.45 -18.7 -1.7 58 -25 -13
15:55 1032 30.47 862 25.45 -18.5 -1.4 58 -24.9 -12.7
16:00 1032 30.47 862 25.45 -18 -0.5 55 -25.1 -13.2
16:05 1032 30.47 862 25.45 -17.8 -0.1 55 -24.9 -12.8
16:10 1032 30.47 862 25.45 -18.2 -0.8 57 -24.8 -12.7
16:15 1032 30.47 862 25.45 -18.6 -1.4 57 -25.2 -13.4
16:20 1033 30.5 862 25.45 -18.5 -1.3 58 -24.9 -12.9
16:25 1033 30.5 862 25.45 -18.8 -1.9 59 -25 -13
16:30 1033 30.5 862 25.45 -19 -2.1 59 -25.2 -13.3
16:35 1033 30.5 862 25.45 -18.7 -1.7 58 -25.1 -13.1
16:40 1033 30.5 862 25.45 -18.8 -1.9 57 -25.3 -13.6
16:45 1033 30.5 862 25.45 -19.4 -2.8 60 -25.3 -13.6
16:50 1033 30.5 862 25.45 -19.6 -3.3 60 -25.4 -13.8
16:55 1033 30.5 862 25.45 -19.9 -3.8 61 -25.5 -14
17:00 1033 30.5 862 25.45 -20 -3.9 62 -25.5 -14
17:05 1033 30.5 862 25.45 -19.9 -3.9 62 -25.5 -13.9
17:10 1033 30.5 862 25.45 -19.9 -3.8 62 -25.3 -13.6
17:15 1033 30.5 862 25.45 -19.9 -3.7 62 -25.4 -13.8
17:20 1033 30.5 862 25.45 -19.9 -3.7 60 -25.7 -14.2
17:25 1033 30.5 862 25.45 -19.7 -3.4 60 -25.5 -13.9
17:30 1033 30.5 862 25.45 -19.8 -3.7 62 -25.4 -13.7
17:35 1033 30.5 862 25.45 -19.9 -3.8 62 -25.5 -13.8
17:40 1032 30.47 862 25.45 -20.3 -4.5 64 -25.5 -14
17:45 1032 30.47 862 25.45 -21.2 -6.1 68 -25.7 -14.2
17:50 1032 30.47 862 25.45 -21.5 -6.7 69 -25.8 -14.4
17:55 1032 30.47 862 25.45 -21.7 -7 69 -25.9 -14.6
18:00 1032 30.47 862 25.45 -21.7 -7.1 71 -25.6 -14.1
18:05 1032 30.47 861 25.43 -22 -7.5 72 -25.7 -14.3
18:10 1032 30.47 861 25.43 -22.5 -8.5 73 -26 -14.8
18:15 1032 30.47 861 25.43 -22.6 -8.7 74 -26.1 -15
18:20 1032 30.47 861 25.43 -22.8 -9.1 74 -26.2 -15.2
18:25 1032 30.47 861 25.43 -22.9 -9.1 74 -26.3 -15.4
18:30 1032 30.47 861 25.43 -22.9 -9.2 75 -26.2 -15.2
18:35 1032 30.47 861 25.43 -22.9 -9.3 75 -26.3 -15.3
18:40 1031 30.45 861 25.43 -23 -9.5 74 -26.4 -15.5
18:45 1031 30.45 861 25.43 -23 -9.3 74 -26.4 -15.5
18:50 1031 30.45 861 25.43 -23.1 -9.7 73 -26.7 -16
18:55 1031 30.45 861 25.43 -23.3 -10 74 -26.8 -16.3
19:00 1031 30.45 861 25.43 -23.4 -10.2 74 -26.8 -16.3
19:05 1031 30.45 861 25.43 -23.5 -10.2 74 -26.8 -16.3
19:10 1031 30.45 860 25.4 -23.5 -10.3 74 -26.9 -16.3
19:15 1031 30.45 860 25.4 -23.7 -10.6 74 -27.1 -16.7
19:20 1031 30.45 860 25.4 -23.8 -10.8 74 -27.1 -16.8
19:25 1031 30.45 860 25.4 -23.8 -10.8 74 -27.2 -16.9
19:30 1031 30.45 860 25.4 -23.7 -10.7 74 -27.1 -16.8
19:35 1031 30.45 860 25.4 -23.6 -10.5 74 -27 -16.6
19:40 1031 30.45 860 25.4 -23.4 -10.1 73 -26.9 -16.4
19:45 1031 30.45 860 25.4 -23.3 -9.9 72 -27 -16.5
19:50 1031 30.45 860 25.4 -23.2 -9.8 71 -27 -16.6
19:55 1031 30.45 860 25.4 -23.2 -9.7 71 -27 -16.6
20:00 1031 30.45 860 25.4 -23.2 -9.7 71 -27.1 -16.7
20:05 1031 30.45 860 25.4 -23.1 -9.7 72 -26.9 -16.4
20:10 1031 30.45 860 25.4 -23.1 -9.6 71 -26.9 -16.5
20:15 1031 30.45 860 25.4 -23.5 -10.2 72 -27.2 -17
20:20 1031 30.45 860 25.4 -24 -11.3 73 -27.7 -17.8
20:25 1031 30.45 860 25.4 -24.3 -11.8 74 -27.7 -17.9
20:30 1031 30.45 860 25.4 -24.5 -12.1 74 -28 -18.3
20:35 1031 30.45 860 25.4 -24.6 -12.3 74 -27.9 -18.3
20:40 1031 30.45 860 25.4 -24.8 -12.7 74 -28.3 -18.9
20:45 1031 30.45 860 25.4 -25 -13 75 -28.2 -18.8
20:50 1031 30.45 860 25.4 -24.8 -12.6 76 -27.8 -18.1
20:55 1031 30.45 860 25.4 -24.3 -11.7 74 -27.7 -17.8
21:00 1031 30.45 860 25.4 -23.8 -10.9 73 -27.4 -17.3
21:05 1031 30.45 860 25.4 -23.6 -10.5 73 -27.3 -17.1
21:10 1031 30.45 860 25.4 -23.4 -10.1 73 -27 -16.6
21:15 1031 30.45 860 25.4 -22.9 -9.2 71 -26.7 -16.1
21:20 1031 30.45 860 25.4 -23 -9.4 71 -26.9 -16.5
21:25 1031 30.45 860 25.4 -23.9 -11.1 73 -27.5 -17.4
21:30 1031 30.45 860 25.4 -24.6 -12.2 75 -27.9 -18.2
21:35 1031 30.45 860 25.4 -24.7 -12.5 75 -28 -18.4
21:40 1031 30.45 860 25.4 -24.6 -12.3 76 -27.7 -17.8
21:45 1031 30.45 860 25.4 -24 -11.2 74 -27.4 -17.2
21:50 1031 30.45 860 25.4 -23.6 -10.4 73 -27.2 -17
21:55 1031 30.45 860 25.4 -23.4 -10.1 74 -26.9 -16.4
22:00 1030 30.42 860 25.4 -23.6 -10.5 72 -27.4 -17.2
22:05 1030 30.42 860 25.4 -24.2 -11.5 75 -27.5 -17.4
22:10 1030 30.42 859 25.37 -24.1 -11.4 75 -27.4 -17.3
22:15 1030 30.42 859 25.37 -24.3 -11.7 75 -27.6 -17.7
22:20 1030 30.42 859 25.37 -24.4 -12 77 -27.4 -17.3
22:25 1030 30.42 859 25.37 -23.7 -10.7 73 -27.3 -17.1
22:30 1030 30.42 859 25.37 -23.8 -10.8 74 -27.2 -17
22:35 1030 30.42 859 25.37 -23.8 -10.9 72 -27.6 -17.6
22:40 1030 30.42 859 25.37 -24.1 -11.4 74 -27.5 -17.6
22:45 1030 30.42 859 25.37 -24.2 -11.5 74 -27.6 -17.7
22:50 1030 30.42 859 25.37 -24.1 -11.4 76 -27.2 -17
22:55 1030 30.42 859 25.37 -23.5 -10.3 74 -27 -16.5
23:00 1030 30.42 859 25.37 -23.3 -9.9 72 -27 -16.6
23:05 1030 30.42 859 25.37 -23.5 -10.3 71 -27.3 -17.2
23:10 1030 30.42 859 25.37 -24 -11.3 73 -27.5 -17.6
23:15 1030 30.42 859 25.37 -24 -11.3 73 -27.5 -17.6
23:20 1030 30.42 859 25.37 -23.9 -11 73 -27.4 -17.4
23:25 1030 30.42 859 25.37 -23.9 -11 74 -27.2 -17
23:30 1030 30.42 859 25.37 -23.6 -10.4 74 -26.9 -16.5
23:35 1030 30.42 859 25.37 -23.3 -10 73 -26.9 -16.4
23:40 1030 30.42 859 25.37 -22.9 -9.3 72 -26.7 -16.1
23:45 1030 30.42 860 25.4 -23 -9.3 73 -26.6 -15.9
23:50 1030 30.42 860 25.4 -23.1 -9.6 72 -26.8 -16.2
23:55 1030 30.42 860 25.4 -23.2 -9.8 73 -26.8 -16.2
24:00 1030 30.42 860 25.4 -23.4 -10 73 -26.9 -16.4